Terminal Aerodrome Forecast
Issued by NWS

Home | Current Version | Previous Version | Text Only | Print | Product List | Glossary On
Versions: 1 2 3 4 5 6 7 8 9 10 11 12 13 14 15 16 17
000
FTUS43 KMQT 261120
TAFIWD
TAF
KIWD 261120Z 2612/2712 25015G24KT P6SM -SHRA OVC010
     FM261600 27017G29KT 6SM -SHRA OVC015
     FM262100 27016G28KT 6SM -SHRA OVC020
     FM262200 27016G28KT 6SM -SHRA OVC015
     FM271100 28014G24KT P6SM -SHRA OVC008=

USA.gov is the U.S. government's official web portal to all federal, state and local government web resources and services.